Time;durP1;ratioP1;P1;durP2;ratioP2;P2;SDS_P1;SDS_P2;PMS_P1;PMS_P2;Temp;Humidity;BMP_temperature;BMP_pressure;BME280_temperature;BME280_humidity;BME280_pressure;Samples;Min_cycle;Max_cycle;Signal;HPM_P1;HPM_P2
2021/08/14 00:01:28;;;;;;;;;;;;;;;20.95;73.96;100138.09;5115109;28;19920;-70
2021/08/14 00:03:56;;;;;;;;;;;;;;;20.86;74.35;100133.25;5115290;28;19920;-70
2021/08/14 00:06:25;;;;;;;;;;;;;;;20.83;74.31;100128.19;5114992;28;19920;-70
2021/08/14 00:08:54;;;;;;;;;;;;;;;20.84;74.72;100125.53;5114731;28;19919;-70
2021/08/14 00:11:24;;;;;;;;;;;;;;;20.81;74.57;100133.41;5114433;28;20352;-70
2021/08/14 00:13:53;;;;;;;;;;;;;;;20.67;74.68;100135.63;5115578;28;19959;-70
2021/08/14 00:16:21;;;;;;;;;;;;;;;20.62;75.14;100133.22;5114919;28;20018;-70
2021/08/14 00:18:50;;;;;;;;;;;;;;;20.74;75.12;100129.34;5115458;28;20356;-70
2021/08/14 00:21:18;;;;;;;;;;;;;;;20.78;74.62;100120.53;5115109;28;19998;-70
2021/08/14 00:23:47;;;;;;;;;;;;;;;20.79;74.50;100124.84;5114778;28;20388;-70
2021/08/14 00:26:16;;;;;;;;;;;;;;;20.82;74.57;100123.88;5115640;28;19927;-70
2021/08/14 00:28:47;;;;;;;;;;;;;;;20.77;74.59;100123.19;5114706;28;20369;-70
2021/08/14 00:31:17;;;;;;;;;;;;;;;20.65;74.83;100119.28;5114945;28;19920;-70
2021/08/14 00:33:46;;;;;;;;;;;;;;;20.51;75.19;100118.91;5114586;28;20357;-70
2021/08/14 00:36:15;;;;;;;;;;;;;;;20.48;75.44;100113.81;5115173;28;19959;-70
2021/08/14 00:38:44;;;;;;;;;;;;;;;20.46;75.47;100113.03;5114534;28;19923;-70
2021/08/14 00:41:12;;;;;;;;;;;;;;;20.46;75.50;100123.41;5114770;28;19924;-70
2021/08/14 00:43:41;;;;;;;;;;;;;;;20.48;75.55;100117.28;5115066;28;19919;-70
2021/08/14 00:46:11;;;;;;;;;;;;;;;20.50;75.77;100110.28;5114564;28;19949;-70
2021/08/14 00:48:41;;;;;;;;;;;;;;;20.42;75.92;100111.47;5114501;28;19954;-70
2021/08/14 00:51:09;;;;;;;;;;;;;;;20.47;75.92;100107.78;5114425;28;19967;-70
2021/08/14 00:53:38;;;;;;;;;;;;;;;20.51;75.94;100117.19;5114903;28;20377;-70
2021/08/14 00:56:06;;;;;;;;;;;;;;;20.47;75.73;100114.72;5114923;28;19954;-70
2021/08/14 00:58:35;;;;;;;;;;;;;;;20.45;75.84;100116.50;5114665;28;19920;-70
2021/08/14 01:01:04;;;;;;;;;;;;;;;20.46;75.99;100113.03;5114598;28;20273;-70
2021/08/14 01:03:35;;;;;;;;;;;;;;;20.47;76.06;100110.38;5114662;28;19969;-70
2021/08/14 01:06:03;;;;;;;;;;;;;;;20.47;76.11;100109.53;5114392;28;19965;-70
2021/08/14 01:08:32;;;;;;;;;;;;;;;20.52;75.93;100107.63;5114601;28;20009;-70
2021/08/14 01:11:01;;;;;;;;;;;;;;;20.51;75.71;100103.34;5114806;28;20314;-70
2021/08/14 01:13:32;;;;;;;;;;;;;;;20.49;75.92;100097.38;5114512;28;20022;-70
2021/08/14 01:16:01;;;;;;;;;;;;;;;20.45;75.93;100096.63;5114642;28;19984;-70
2021/08/14 01:18:30;;;;;;;;;;;;;;;20.42;76.09;100101.09;5114802;28;19943;-70
2021/08/14 01:21:00;;;;;;;;;;;;;;;20.41;76.12;100104.56;5115074;28;19926;-70
2021/08/14 01:23:29;;;;;;;;;;;;;;;20.37;75.95;100098.63;5118212;28;20363;-70
2021/08/14 01:26:01;;;;;;;;;;;;;;;20.33;76.25;100102.22;5118431;28;20014;-70
2021/08/14 01:28:32;;;;;;;;;;;;;;;20.29;76.27;100099.78;5118722;28;20372;-70
2021/08/14 01:31:01;;;;;;;;;;;;;;;20.27;76.40;100096.41;5116850;28;20361;-70
2021/08/14 01:33:30;;;;;;;;;;;;;;;20.35;76.45;100089.19;5117865;28;20323;-70
2021/08/14 01:35:59;;;;;;;;;;;;;;;20.37;76.38;100090.00;5117989;28;19920;-70
2021/08/14 01:38:28;;;;;;;;;;;;;;;20.33;76.12;100096.19;5117893;28;19919;-70
2021/08/14 01:40:56;;;;;;;;;;;;;;;20.30;76.23;100097.13;5117767;28;19920;-70
2021/08/14 01:43:25;;;;;;;;;;;;;;;20.34;75.77;100090.13;5117737;28;20011;-70
2021/08/14 01:45:55;;;;;;;;;;;;;;;20.30;75.89;100096.31;5118086;28;19919;-70
2021/08/14 01:48:24;;;;;;;;;;;;;;;20.17;75.95;100087.19;5117745;28;20006;-70
2021/08/14 01:50:52;;;;;;;;;;;;;;;20.12;76.05;100086.50;5117882;28;20281;-70
2021/08/14 01:53:21;;;;;;;;;;;;;;;20.10;76.18;100090.91;5117814;28;20280;-70
2021/08/14 01:55:49;;;;;;;;;;;;;;;20.02;76.35;100089.41;5117885;28;19955;-70
2021/08/14 01:58:18;;;;;;;;;;;;;;;20.02;76.49;100089.41;5117545;27;19926;-70
2021/08/14 02:00:47;;;;;;;;;;;;;;;20.05;76.61;100084.13;5117487;28;19959;-70
2021/08/14 02:03:17;;;;;;;;;;;;;;;20.00;76.39;100080.84;5117642;28;20377;-70
2021/08/14 02:05:46;;;;;;;;;;;;;;;19.94;76.75;100086.19;5117445;28;19920;-70
2021/08/14 02:08:14;;;;;;;;;;;;;;;19.97;76.76;100093.88;5117355;28;20014;-70
2021/08/14 02:10:43;;;;;;;;;;;;;;;20.04;76.83;100085.00;5117582;28;19923;-70
2021/08/14 02:13:11;;;;;;;;;;;;;;;19.97;76.75;100080.94;5116141;28;19925;-70
2021/08/14 02:15:40;;;;;;;;;;;;;;;19.97;76.73;100083.53;5117675;28;19965;-70
2021/08/14 02:18:09;;;;;;;;;;;;;;;19.95;77.02;100074.94;5117196;28;19920;-69
2021/08/14 02:20:39;;;;;;;;;;;;;;;19.81;77.24;100074.56;5117109;28;19919;-69
2021/08/14 02:23:08;;;;;;;;;;;;;;;19.74;77.28;100080.81;5117578;28;20367;-69
2021/08/14 02:25:36;;;;;;;;;;;;;;;19.84;77.56;100077.03;5116994;28;19920;-70
2021/08/14 02:28:05;;;;;;;;;;;;;;;19.86;77.30;100077.84;5116830;28;19995;-70
2021/08/14 02:30:34;;;;;;;;;;;;;;;19.87;77.37;100073.50;5117227;28;19970;-71
2021/08/14 02:33:03;;;;;;;;;;;;;;;19.80;77.30;100075.44;5116023;28;19924;-70
2021/08/14 02:35:32;;;;;;;;;;;;;;;19.75;77.41;100069.56;5115927;28;19968;-70
2021/08/14 02:38:05;;;;;;;;;;;;;;;19.61;77.52;100079.50;5117116;28;19978;-70
2021/08/14 02:40:34;;;;;;;;;;;;;;;19.49;77.85;100073.84;5117058;28;20364;-70
2021/08/14 02:43:03;;;;;;;;;;;;;;;19.46;77.96;100074.78;5116608;28;19958;-71
2021/08/14 02:45:33;;;;;;;;;;;;;;;19.42;78.34;100068.00;5116670;28;19919;-71
2021/08/14 02:48:02;;;;;;;;;;;;;;;19.42;78.37;100078.38;5116902;28;19963;-71
2021/08/14 02:50:30;;;;;;;;;;;;;;;19.43;78.69;100069.72;5116544;28;19970;-71
2021/08/14 02:52:59;;;;;;;;;;;;;;;19.48;78.60;100073.03;5116602;28;19919;-71
2021/08/14 02:55:29;;;;;;;;;;;;;;;19.46;78.52;100074.78;5116439;27;19998;-71
2021/08/14 02:57:57;;;;;;;;;;;;;;;19.43;78.70;100074.03;5116710;28;19920;-71
2021/08/14 03:00:26;;;;;;;;;;;;;;;19.49;78.61;100066.94;5116845;28;19977;-71
2021/08/14 03:02:55;;;;;;;;;;;;;;;19.53;78.32;100075.47;5116172;28;19926;-71
2021/08/14 03:05:25;;;;;;;;;;;;;;;19.43;78.41;100074.91;5116209;28;19954;-71
2021/08/14 03:07:53;;;;;;;;;;;;;;;19.38;78.64;100079.38;5116156;28;19978;-71
2021/08/14 03:10:22;;;;;;;;;;;;;;;19.55;78.86;100077.13;5116422;28;19947;-71
2021/08/14 03:12:52;;;;;;;;;;;;;;;19.63;78.42;100067.34;5114806;28;19919;-71
2021/08/14 03:15:21;;;;;;;;;;;;;;;19.66;78.17;100067.25;5116009;28;19920;-71
2021/08/14 03:17:53;;;;;;;;;;;;;;;19.75;77.90;100061.78;5116011;28;19920;-71
2021/08/14 03:20:21;;;;;;;;;;;;;;;19.62;77.60;100065.66;5115986;28;19926;-71
2021/08/14 03:22:50;;;;;;;;;;;;;;;19.48;77.96;100078.19;5116186;28;19964;-71
2021/08/14 03:25:19;;;;;;;;;;;;;;;19.46;78.12;100074.78;5115738;28;19926;-71
2021/08/14 03:27:48;;;;;;;;;;;;;;;19.56;78.15;100071.03;5115528;28;19919;-71
2021/08/14 03:30:18;;;;;;;;;;;;;;;19.62;78.09;100067.41;5115655;28;19969;-71
2021/08/14 03:32:47;;;;;;;;;;;;;;;19.64;77.56;100074.25;5116017;28;19919;-71
2021/08/14 03:35:16;;;;;;;;;;;;;;;19.57;77.61;100072.72;5115398;28;19926;-71
2021/08/14 03:37:45;;;;;;;;;;;;;;;19.53;77.73;100078.06;5115871;28;19974;-71
2021/08/14 03:40:14;;;;;;;;;;;;;;;19.62;77.86;100085.53;5115803;28;20375;-71
2021/08/14 03:42:43;;;;;;;;;;;;;;;19.65;77.56;100086.28;5115790;28;20031;-71
2021/08/14 03:45:11;;;;;;;;;;;;;;;19.68;77.74;100086.19;5114528;28;19923;-71
2021/08/14 03:47:41;;;;;;;;;;;;;;;19.68;77.27;100081.00;5115674;28;19945;-71
2021/08/14 03:50:10;;;;;;;;;;;;;;;19.67;77.07;100089.69;5115406;28;19927;-71
2021/08/14 03:52:40;;;;;;;;;;;;;;;19.59;77.21;100096.84;5115294;28;19920;-71
2021/08/14 03:55:09;;;;;;;;;;;;;;;19.63;77.23;100088.06;5115052;28;19927;-71
2021/08/14 03:57:38;;;;;;;;;;;;;;;19.61;77.17;100084.69;5115209;28;19919;-71
2021/08/14 04:00:07;;;;;;;;;;;;;;;19.58;77.45;100095.13;5115518;28;19920;-71
2021/08/14 04:02:36;;;;;;;;;;;;;;;19.57;77.52;100098.63;5115456;28;19923;-71
2021/08/14 04:05:07;;;;;;;;;;;;;;;19.63;77.59;100103.59;5113783;28;20014;-71
2021/08/14 04:07:35;;;;;;;;;;;;;;;19.66;77.57;100098.34;5115390;28;20300;-71
2021/08/14 04:10:04;;;;;;;;;;;;;;;19.62;77.99;100101.94;5114992;27;19924;-71
2021/08/14 04:12:33;;;;;;;;;;;;;;;19.71;77.52;100101.63;5115139;28;19919;-71
2021/08/14 04:15:03;;;;;;;;;;;;;;;19.81;77.60;100097.88;5114816;28;19955;-71
2021/08/14 04:17:36;;;;;;;;;;;;;;;19.89;77.09;100101.03;5115264;28;20021;-71
2021/08/14 04:20:07;;;;;;;;;;;;;;;19.95;76.76;100100.88;5115416;28;20323;-71
2021/08/14 04:22:35;;;;;;;;;;;;;;;20.00;76.95;100103.31;5114811;28;20015;-71
2021/08/14 04:25:04;;;;;;;;;;;;;;;19.95;76.66;100102.59;5114766;28;20015;-71
2021/08/14 04:27:33;;;;;;;;;;;;;;;19.92;76.84;100106.13;5114798;28;19972;-71
2021/08/14 04:30:02;;;;;;;;;;;;;;;19.79;77.04;100114.34;5114981;28;20376;-71
2021/08/14 04:32:34;;;;;;;;;;;;;;;19.63;77.73;100124.31;5114650;28;19920;-71
2021/08/14 04:35:04;;;;;;;;;;;;;;;19.64;77.96;100110.50;5114580;28;19919;-71
2021/08/14 04:37:34;;;;;;;;;;;;;;;19.70;78.23;100115.47;5114905;28;20373;-71
2021/08/14 04:40:03;;;;;;;;;;;;;;;19.77;78.19;100122.16;5114881;28;20297;-71
2021/08/14 04:42:35;;;;;;;;;;;;;;;19.83;77.88;100116.81;5115487;28;19919;-71
2021/08/14 04:45:04;;;;;;;;;;;;;;;19.90;78.16;100113.13;5114763;28;20335;-71
2021/08/14 04:47:33;;;;;;;;;;;;;;;20.01;78.08;100118.78;5114477;28;20006;-72
2021/08/14 04:50:01;;;;;;;;;;;;;;;20.02;77.81;100123.09;5114453;28;19998;-72
2021/08/14 04:52:31;;;;;;;;;;;;;;;20.12;78.07;100117.59;5114760;28;20014;-71
2021/08/14 04:55:02;;;;;;;;;;;;;;;20.23;77.89;100115.56;5114381;28;19920;-71
2021/08/14 04:57:30;;;;;;;;;;;;;;;20.41;77.67;100117.53;5118171;28;19920;-72
2021/08/14 04:59:59;;;;;;;;;;;;;;;20.61;77.16;100113.34;5118896;28;19919;-72
2021/08/14 05:02:29;;;;;;;;;;;;;;;20.76;76.55;100117.16;5118598;28;19920;-72
2021/08/14 05:04:58;;;;;;;;;;;;;;;20.85;75.98;100114.22;5118628;28;20014;-72
2021/08/14 05:07:27;;;;;;;;;;;;;;;20.82;75.57;100121.28;5118740;28;19967;-71
2021/08/14 05:09:55;;;;;;;;;;;;;;;20.90;75.15;100124.47;5118802;28;19919;-71
2021/08/14 05:12:26;;;;;;;;;;;;;;;21.09;74.81;100121.16;5118273;28;19955;-71
2021/08/14 05:14:55;;;;;;;;;;;;;;;21.25;74.14;100122.31;5118605;28;19920;-72
2021/08/14 05:17:23;;;;;;;;;;;;;;;21.30;73.51;100128.19;5118276;28;20251;-72
2021/08/14 05:19:52;;;;;;;;;;;;;;;21.41;73.50;100127.75;5118283;28;19923;-71
2021/08/14 05:22:21;;;;;;;;;;;;;;;21.57;72.79;100130.66;5118520;28;19919;-72
2021/08/14 05:24:49;;;;;;;;;;;;;;;21.65;72.14;100137.22;5116993;28;19920;-71
2021/08/14 05:27:18;;;;;;;;;;;;;;;21.74;71.47;100136.03;5117873;27;20369;-71
2021/08/14 05:29:48;;;;;;;;;;;;;;;21.83;70.85;100138.28;5118005;28;20018;-71
2021/08/14 05:32:17;;;;;;;;;;;;;;;21.85;70.52;100133.88;5118606;28;20281;-70
2021/08/14 05:34:45;;;;;;;;;;;;;;;21.90;70.30;100131.97;5118541;28;19920;-71
2021/08/14 05:37:14;;;;;;;;;;;;;;;22.03;69.76;100144.41;5118087;28;20022;-71
2021/08/14 05:39:42;;;;;;;;;;;;;;;22.08;69.52;100139.00;5117890;28;19927;-70
2021/08/14 05:42:11;;;;;;;;;;;;;;;22.16;69.29;100139.56;5117806;28;19962;-70
2021/08/14 05:44:40;;;;;;;;;;;;;;;22.32;69.01;100139.75;5118098;28;20250;-71
2021/08/14 05:47:10;;;;;;;;;;;;;;;22.49;68.88;100135.56;5117969;28;19920;-71
2021/08/14 05:49:38;;;;;;;;;;;;;;;22.68;68.59;100139.09;5117716;28;19927;-69
2021/08/14 05:52:08;;;;;;;;;;;;;;;22.84;68.22;100133.25;5117717;28;19955;-69
2021/08/14 05:54:37;;;;;;;;;;;;;;;22.90;67.98;100133.81;5116283;28;19924;-69
2021/08/14 05:57:06;;;;;;;;;;;;;;;23.02;67.58;100133.28;5117591;28;20440;-69
2021/08/14 05:59:34;;;;;;;;;;;;;;;23.16;67.19;100130.03;5117505;28;19920;-70
2021/08/14 06:02:03;;;;;;;;;;;;;;;23.24;66.87;100134.00;5117497;28;19998;-69
2021/08/14 06:04:33;;;;;;;;;;;;;;;23.39;66.68;100139.47;5117747;28;19955;-69
2021/08/14 06:07:02;;;;;;;;;;;;;;;23.47;66.43;100135.59;5116813;28;19926;-69
2021/08/14 06:09:31;;;;;;;;;;;;;;;23.57;66.32;100136.84;5116795;28;20377;-69
2021/08/14 06:11:59;;;;;;;;;;;;;;;23.67;65.87;100135.50;5117193;28;20010;-69
2021/08/14 06:14:28;;;;;;;;;;;;;;;23.80;65.82;100138.41;5117180;27;19924;-69
2021/08/14 06:16:57;;;;;;;;;;;;;;;23.95;65.41;100129.81;5117053;28;19920;-70
2021/08/14 06:19:28;;;;;;;;;;;;;;;24.04;65.14;100129.41;5117144;28;19925;-69
2021/08/14 06:21:58;;;;;;;;;;;;;;;24.15;65.11;100129.75;5117054;28;20369;-69
2021/08/14 06:24:27;;;;;;;;;;;;;;;24.27;64.40;100123.91;5117084;28;19919;-69
2021/08/14 06:26:55;;;;;;;;;;;;;;;24.32;63.88;100127.16;5115529;28;19970;-69
2021/08/14 06:29:24;;;;;;;;;;;;;;;24.36;63.50;100127.81;5115735;28;20002;-69
2021/08/14 06:31:52;;;;;;;;;;;;;;;24.38;62.99;100131.19;5116871;28;20006;-69
2021/08/14 06:34:21;;;;;;;;;;;;;;;24.40;63.06;100126.75;5116797;28;19927;-69
2021/08/14 06:36:49;;;;;;;;;;;;;;;24.48;62.91;100135.03;5116707;28;19926;-69
2021/08/14 06:39:20;;;;;;;;;;;;;;;24.65;62.90;100130.66;5116876;27;19977;-69
2021/08/14 06:41:48;;;;;;;;;;;;;;;24.71;62.68;100132.13;5116720;28;19930;-69
2021/08/14 06:44:17;;;;;;;;;;;;;;;24.77;62.77;100134.44;5115469;28;19923;-69
2021/08/14 06:46:46;;;;;;;;;;;;;;;24.86;62.98;100141.78;5116464;28;19924;-69
2021/08/14 06:49:15;;;;;;;;;;;;;;;25.00;62.65;100139.28;5116615;28;19920;-70
2021/08/14 06:51:43;;;;;;;;;;;;;;;25.13;62.51;100147.34;5116462;28;19920;-70
2021/08/14 06:54:12;;;;;;;;;;;;;;;25.22;62.20;100146.84;5116116;28;19923;-71
2021/08/14 06:56:44;;;;;;;;;;;;;;;25.29;61.96;100149.06;5116563;28;19950;-71
2021/08/14 06:59:12;;;;;;;;;;;;;;;25.40;61.82;100155.47;5116585;28;19926;-71
2021/08/14 07:01:41;;;;;;;;;;;;;;;25.36;61.85;100149.59;5116378;28;19919;-71
2021/08/14 07:04:10;;;;;;;;;;;;;;;25.59;61.50;100158.81;5116217;28;19920;-71
2021/08/14 07:06:38;;;;;;;;;;;;;;;25.68;61.57;100150.47;5116178;28;19962;-71
2021/08/14 07:09:07;;;;;;;;;;;;;;;25.75;61.41;100162.28;5114930;28;19968;-71
2021/08/14 07:11:35;;;;;;;;;;;;;;;25.84;61.66;100156.56;5116437;28;19963;-71
2021/08/14 07:14:06;;;;;;;;;;;;;;;25.94;61.99;100148.09;5116138;28;19943;-71
2021/08/14 07:16:35;;;;;;;;;;;;;;;26.13;61.28;100147.91;5115268;28;20357;-71
2021/08/14 07:19:04;;;;;;;;;;;;;;;26.20;61.09;100144.00;5115644;28;19920;-72
2021/08/14 07:21:33;;;;;;;;;;;;;;;26.35;59.67;100151.00;5116161;28;19920;-72
2021/08/14 07:24:02;;;;;;;;;;;;;;;26.45;58.31;100149.53;5115818;28;19919;-72
2021/08/14 07:26:31;;;;;;;;;;;;;;;26.54;57.53;100146.38;5115562;28;19969;-71
2021/08/14 07:29:00;;;;;;;;;;;;;;;26.59;57.69;100152.19;5115853;27;20003;-71
2021/08/14 07:31:30;;;;;;;;;;;;;;;26.59;57.65;100146.94;5115841;28;20003;-71
2021/08/14 07:34:06;;;;;;;;;;;;;;;26.50;57.19;100147.50;5115717;28;19924;-71
2021/08/14 07:36:35;;;;;;;;;;;;;;;26.53;57.57;100147.31;5115453;28;19919;-71
2021/08/14 07:39:05;;;;;;;;;;;;;;;26.47;57.34;100147.66;5115551;28;19947;-72
2021/08/14 07:41:33;;;;;;;;;;;;;;;26.32;57.43;100148.53;5116455;28;19920;-72
2021/08/14 07:44:03;;;;;;;;;;;;;;;26.28;57.61;100149.66;5115434;28;19962;-73
2021/08/14 07:46:48;;;;;;;;;;;;;;;26.56;57.22;100138.44;5115719;28;19920;-73
2021/08/14 07:49:17;;;;;;;;;;;;;;;26.90;56.08;100145.16;5115729;28;19920;-72
2021/08/14 07:51:45;;;;;;;;;;;;;;;27.01;56.04;100132.25;5115826;28;20007;-71
2021/08/14 07:54:14;;;;;;;;;;;;;;;27.06;55.61;100143.28;5115508;28;19919;-72
2021/08/14 07:56:43;;;;;;;;;;;;;;;27.29;55.29;100134.84;5115152;28;19920;-72
2021/08/14 07:59:11;;;;;;;;;;;;;;;27.47;55.36;100146.00;5115224;28;19920;-71
2021/08/14 08:01:40;;;;;;;;;;;;;;;27.57;54.85;100139.25;5115756;27;20365;-73
2021/08/14 08:04:10;;;;;;;;;;;;;;;27.58;55.53;100133.91;5113695;28;19920;-72
2021/08/14 08:06:39;;;;;;;;;;;;;;;27.87;54.89;100134.66;5115081;28;19927;-71
2021/08/14 08:09:08;;;;;;;;;;;;;;;28.04;53.87;100130.97;5115286;28;20341;-72
2021/08/14 08:11:36;;;;;;;;;;;;;;;28.12;53.60;100131.31;5113756;28;19920;-73
2021/08/14 08:14:05;;;;;;;;;;;;;;;28.23;53.53;100131.44;5115119;28;20379;-71
2021/08/14 08:16:34;;;;;;;;;;;;;;;28.18;53.20;100129.13;5114869;28;19968;-71
2021/08/14 08:19:02;;;;;;;;;;;;;;;28.06;53.64;100123.81;5113662;28;19920;-71
2021/08/14 08:21:33;;;;;;;;;;;;;;;28.26;53.31;100121.59;5114769;28;19924;-72
2021/08/14 08:24:02;;;;;;;;;;;;;;;28.51;52.51;100120.75;5097065;28;19920;-71
2021/08/14 08:26:32;;;;;;;;;;;;;;;28.73;52.50;100120.19;5114439;28;20002;-71
2021/08/14 08:29:00;;;;;;;;;;;;;;;28.93;52.19;100119.66;5114778;28;19965;-71
2021/08/14 08:31:29;;;;;;;;;;;;;;;28.92;51.13;100124.06;5114039;28;20285;-71
2021/08/14 08:33:59;;;;;;;;;;;;;;;28.95;50.41;100117.75;5114989;28;19920;-71
2021/08/14 08:36:28;;;;;;;;;;;;;;;29.05;50.29;100114.41;5114572;28;19919;-71
2021/08/14 08:38:58;;;;;;;;;;;;;;;29.09;50.03;100112.38;5114500;28;20353;-77
2021/08/14 08:41:26;;;;;;;;;;;;;;;29.22;50.10;100113.25;5113343;28;20293;-76
2021/08/14 08:43:55;;;;;;;;;;;;;;;29.38;49.85;100112.97;5114431;28;19965;-77
2021/08/14 08:46:25;;;;;;;;;;;;;;;29.56;49.73;100116.94;5114449;28;19923;-72
2021/08/14 08:48:54;;;;;;;;;;;;;;;29.48;50.28;100112.22;5113290;28;19965;-72
2021/08/14 08:51:24;;;;;;;;;;;;;;;29.36;49.90;100109.63;5114307;28;19994;-72
2021/08/14 08:53:53;;;;;;;;;;;;;;;29.43;49.31;100110.88;5114699;28;19920;-72
2021/08/14 08:56:23;;;;;;;;;;;;;;;29.43;49.44;100105.59;5114606;28;20010;-73
2021/08/14 08:58:52;;;;;;;;;;;;;;;29.57;49.00;100100.19;5114443;28;19927;-73
2021/08/14 09:01:21;;;;;;;;;;;;;;;29.68;49.41;100108.16;5096080;28;19923;-73
2021/08/14 09:03:50;;;;;;;;;;;;;;;29.83;49.33;100099.16;5114277;28;19965;-72
2021/08/14 09:06:19;;;;;;;;;;;;;;;30.03;49.70;100095.06;5114199;28;19926;-72
2021/08/14 09:08:59;;;;;;;;;;;;;;;30.27;48.85;100104.59;5114466;28;20404;-72
2021/08/14 09:11:29;;;;;;;;;;;;;;;30.26;48.49;100091.53;5114197;28;19920;-72
2021/08/14 09:14:07;;;;;;;;;;;;;;;30.24;48.05;100093.44;5114245;28;19926;-73
2021/08/14 09:16:36;;;;;;;;;;;;;;;30.46;47.97;100091.75;5114215;28;19920;-72
2021/08/14 09:19:05;;;;;;;;;;;;;;;30.70;48.22;100090.81;5114441;28;19924;-72
2021/08/14 09:21:34;;;;;;;;;;;;;;;30.66;46.69;100095.50;5112852;28;19920;-72
2021/08/14 09:24:05;;;;;;;;;;;;;;;30.75;46.62;100088.66;5114141;28;19919;-77
2021/08/14 09:26:56;;;;;;;;;;;;;;;30.75;46.55;100091.31;5114218;28;20335;-76
2021/08/14 09:29:29;;;;;;;;;;;;;;;30.81;46.30;100082.94;5114173;28;19919;-77
2021/08/14 09:31:58;;;;;;;;;;;;;;;31.00;46.63;100085.84;5114115;28;20293;-75
2021/08/14 09:34:27;;;;;;;;;;;;;;;30.99;45.72;100081.50;5113945;28;19920;-76
2021/08/14 09:37:02;;;;;;;;;;;;;;;30.93;45.55;100082.00;5113995;28;19919;-77
2021/08/14 09:39:33;;;;;;;;;;;;;;;30.82;45.15;100074.03;5114013;28;20423;-77
2021/08/14 09:42:07;;;;;;;;;;;;;;;31.05;45.80;100070.50;5115030;28;19949;-77
2021/08/14 09:44:37;;;;;;;;;;;;;;;31.28;45.40;100074.78;5116657;28;19927;-77
2021/08/14 09:47:09;;;;;;;;;;;;;;;31.44;45.36;100072.59;5117713;28;20002;-77
2021/08/14 09:49:48;;;;;;;;;;;;;;;31.32;44.66;100067.44;5099781;28;19919;-76
2021/08/14 09:52:19;;;;;;;;;;;;;;;31.24;44.08;100064.59;5117983;28;19965;-73
2021/08/14 09:54:47;;;;;;;;;;;;;;;31.38;44.67;100072.25;5117790;28;19920;-73
2021/08/14 09:57:18;;;;;;;;;;;;;;;31.61;44.14;100063.31;5117460;28;20015;-73
2021/08/14 09:59:48;;;;;;;;;;;;;;;31.65;44.01;100065.56;5118200;28;19920;-73
2021/08/14 10:02:18;;;;;;;;;;;;;;;31.69;44.15;100056.47;5117752;28;19951;-72
2021/08/14 10:04:48;;;;;;;;;;;;;;;31.63;44.77;100056.94;5117413;28;19927;-73
2021/08/14 10:07:18;;;;;;;;;;;;;;;31.78;44.39;100055.69;5117705;28;19920;-73
2021/08/14 10:09:47;;;;;;;;;;;;;;;31.97;43.94;100049.75;5117255;28;19920;-74
2021/08/14 10:12:18;;;;;;;;;;;;;;;32.04;43.76;100044.78;5117607;28;20010;-74
2021/08/14 10:14:48;;;;;;;;;;;;;;;32.22;44.99;100043.25;5117282;28;20015;-74
2021/08/14 10:17:20;;;;;;;;;;;;;;;32.38;44.71;100043.63;5117701;28;19924;-73
2021/08/14 10:19:50;;;;;;;;;;;;;;;32.49;45.15;100042.72;5117449;28;19926;-73
2021/08/14 10:22:24;;;;;;;;;;;;;;;32.59;44.49;100036.53;5117243;28;20361;-73
2021/08/14 10:24:55;;;;;;;;;;;;;;;32.48;44.71;100033.94;5117132;28;19920;-73
2021/08/14 10:27:25;;;;;;;;;;;;;;;32.59;44.85;100031.25;5116880;28;19924;-73
2021/08/14 10:29:56;;;;;;;;;;;;;;;32.71;44.06;100030.19;5117320;28;19919;-74
2021/08/14 10:32:39;;;;;;;;;;;;;;;32.71;43.62;100024.88;5115737;28;20318;-77
2021/08/14 10:35:20;;;;;;;;;;;;;;;32.85;43.44;100029.81;5117086;28;19963;-77
2021/08/14 10:37:49;;;;;;;;;;;;;;;32.85;43.61;100021.88;5117057;28;20292;-77
2021/08/14 10:40:19;;;;;;;;;;;;;;;32.94;42.97;100031.69;5115535;28;19920;-73
2021/08/14 10:42:57;;;;;;;;;;;;;;;33.11;42.85;100026.72;5117251;28;19919;-77
2021/08/14 10:45:32;;;;;;;;;;;;;;;32.97;43.13;100017.34;5117031;28;20361;-77
2021/08/14 10:48:04;;;;;;;;;;;;;;;33.01;43.00;100022.22;5116835;28;19942;-77
2021/08/14 10:50:43;;;;;;;;;;;;;;;33.04;42.78;100021.97;5116594;28;20296;-77
2021/08/14 10:53:15;;;;;;;;;;;;;;;33.12;42.41;100017.81;5116205;28;19926;-77
2021/08/14 10:55:45;;;;;;;;;;;;;;;33.25;43.13;100018.41;5116431;28;19923;-73
2021/08/14 10:58:19;;;;;;;;;;;;;;;33.46;43.14;100011.16;5116341;28;19919;-73
2021/08/14 11:00:47;;;;;;;;;;;;;;;33.39;43.22;100015.34;5098194;28;19926;-74
2021/08/14 11:03:19;;;;;;;;;;;;;;;33.56;43.40;100006.75;5116210;28;20365;-73
2021/08/14 11:05:48;;;;;;;;;;;;;;;33.79;43.43;100002.84;5116432;28;19926;-74
2021/08/14 11:08:28;;;;;;;;;;;;;;;33.90;41.76;100002.69;5116576;28;20390;-73
2021/08/14 11:10:57;;;;;;;;;;;;;;;33.96;42.29;99993.31;5116204;28;20281;-73
2021/08/14 11:13:36;;;;;;;;;;;;;;;34.05;42.83;99998.63;5116292;28;19955;-73
2021/08/14 11:16:07;;;;;;;;;;;;;;;34.02;42.47;99993.63;5114866;28;19920;-73
2021/08/14 11:18:46;;;;;;;;;;;;;;;34.00;43.14;99990.25;5115933;28;20289;-73
2021/08/14 11:21:15;;;;;;;;;;;;;;;33.90;42.65;99994.75;5116267;28;19923;-73
2021/08/14 11:23:56;;;;;;;;;;;;;;;33.95;41.98;99992.50;5115911;28;20369;-74
2021/08/14 11:26:32;;;;;;;;;;;;;;;34.03;41.32;99992.63;5116135;28;19924;-74
2021/08/14 11:29:02;;;;;;;;;;;;;;;33.93;41.45;99988.34;5116249;28;19920;-73
2021/08/14 11:31:32;;;;;;;;;;;;;;;33.54;42.17;99988.38;5115693;28;19926;-73
2021/08/14 11:34:11;;;;;;;;;;;;;;;33.58;42.47;99991.56;5115771;28;20010;-73
2021/08/14 11:36:40;;;;;;;;;;;;;;;33.54;42.62;99976.94;5115965;28;20296;-77
2021/08/14 11:39:09;;;;;;;;;;;;;;;33.80;42.02;99978.03;5115445;28;20357;-75
2021/08/14 11:41:38;;;;;;;;;;;;;;;33.75;41.66;99972.31;5116180;28;20349;-77
2021/08/14 11:44:07;;;;;;;;;;;;;;;33.85;41.44;99974.94;5114217;28;20010;-77
2021/08/14 11:46:38;;;;;;;;;;;;;;;33.99;41.80;99978.00;5115766;28;19919;-73
2021/08/14 11:49:07;;;;;;;;;;;;;;;34.24;41.94;99969.44;5115478;28;19920;-74
2021/08/14 11:51:35;;;;;;;;;;;;;;;34.26;41.14;99972.78;5115263;28;19962;-73
2021/08/14 11:54:06;;;;;;;;;;;;;;;34.33;40.29;99965.94;5115364;28;19919;-73
2021/08/14 11:56:35;;;;;;;;;;;;;;;34.46;39.82;99959.47;5114061;28;19920;-73
2021/08/14 11:59:04;;;;;;;;;;;;;;;34.58;39.96;99963.63;5115465;28;20010;-73
2021/08/14 12:01:32;;;;;;;;;;;;;;;34.47;39.75;99966.41;5115115;28;20404;-73
2021/08/14 12:04:03;;;;;;;;;;;;;;;34.47;39.42;99956.66;5115185;28;19920;-73
2021/08/14 12:06:34;;;;;;;;;;;;;;;34.22;39.15;99952.84;5114283;28;20014;-74
2021/08/14 12:09:05;;;;;;;;;;;;;;;33.99;39.47;99946.19;5115309;28;19924;-73
2021/08/14 12:11:35;;;;;;;;;;;;;;;34.14;39.63;99950.09;5115737;28;20022;-78
2021/08/14 12:14:15;;;;;;;;;;;;;;;34.08;39.38;99940.06;5115139;28;19972;-75
2021/08/14 12:16:45;;;;;;;;;;;;;;;34.22;39.84;99936.94;5115181;28;19923;-76
2021/08/14 12:19:16;;;;;;;;;;;;;;;34.36;39.58;99940.94;5113515;28;19920;-78
2021/08/14 12:21:46;;;;;;;;;;;;;;;34.33;39.18;99934.13;5114873;28;19930;-77
2021/08/14 12:24:15;;;;;;;;;;;;;;;34.27;39.09;99924.06;5114817;28;19969;-77
2021/08/14 12:26:43;;;;;;;;;;;;;;;34.41;39.65;99935.19;5114508;28;19930;-77
2021/08/14 12:29:16;;;;;;;;;;;;;;;34.55;38.88;99924.97;5115384;28;19965;-77
2021/08/14 12:31:49;;;;;;;;;;;;;;;34.60;39.12;99929.84;5114942;28;20448;-74
2021/08/14 12:34:26;;;;;;;;;;;;;;;34.85;38.60;99929.09;5114766;28;19919;-74
2021/08/14 12:37:01;;;;;;;;;;;;;;;34.85;38.05;99926.44;5114679;28;20337;-74
2021/08/14 12:39:39;;;;;;;;;;;;;;;34.79;37.77;99924.41;5114527;28;20384;-73
2021/08/14 12:42:14;;;;;;;;;;;;;;;34.76;38.10;99914.09;5113735;28;19920;-73
2021/08/14 12:44:44;;;;;;;;;;;;;;;34.39;37.13;99907.00;5114585;28;20033;-73
2021/08/14 12:47:13;;;;;;;;;;;;;;;34.50;38.38;99907.78;5096406;28;19930;-76
2021/08/14 12:49:44;;;;;;;;;;;;;;;34.85;38.43;99915.84;5114525;28;19920;-77
2021/08/14 12:52:17;;;;;;;;;;;;;;;34.90;38.30;99905.59;5079887;28;19927;-77